Aeroporto :
LOGIN :

Iscrizione | Disclaimer

   EN    FR    IT 

 










Sommario :    VFR   VFR Marginale   IFR   IFR Intensivo   IFR Molto Intensivo
Visibilità : 
Base nubi : 
>= 8 km
>= 3000ft
5 / 8 km
1000 / 3000 ft
1500m / 5 km
500 / 1000 ft
800 / 1500m
200 / 500 ft
< 800m
< 200 ft
Simboli :   Temporali  Nebbia  Neve Forte  Precipitazioni Forti  Vento > 20 kt
SIGMETs :   Varie  Temporali  Ghiacco  Turbolenza  Onda orograficha  Ceneri Vulcaniche






- Altitudine del aeroporto : 151 ft
- Codice IATA : LSZ


LDLO - Lošinj Island

ULTIMO METAR :
  • 171300Z 17018KT 8000 -RA VCTS SCT020CB BKN030 17/13 Q1004 RETSRA

METARs OBSOLETI :
  • 171200Z 17018KT 7000 TSRA SCT010CB BKN020 17/16 Q1005
  • 171100Z 14021G31KT 9999 VCTS FEW020CB BKN025 19/14 Q1005

TAF TAF LDLO
Valido dal 17 a 12 ore il 18 a 12 ore UTC


171125Z 1712/1812 13022KT 9999 SCT025 TX18/1712Z TN12/1805Z
TEMPO 1712/1717 13025G35KT
TEMPO 1712/1721 4000 TSRA FEW015CB BKN030
PROB40
TEMPO 1713/1721 25020G30KT 1500 +TSRA BKN010 SCT015CB OVC020
BECMG 1718/1720 25010KT
PROB30
TEMPO 1805/1812 SHRA FEW030TCU SCT040



MetMap, La meteo Aeronautica in un colpo d'occhio ! - Copyright ORBIFLY Dicembre 2007 - Disclaimer

ORBIFLY MET'MAP TEAM :

Programmazione e sviluppo : Alexandra Zaïnal
Concezione e sviluppo : Baudouin d'Aumeries
Co-Programmazione e sviluppo : Marc-Olivier Méhu
Supporto tecnico e logistico : Manuel Goepfert
Aiuto per la traduzione : Arnaldo La Scala

Contatto : metmap@orbifly.com




FONTI E CREDITI :

   NOAA